Time;durP1;ratioP1;P1;durP2;ratioP2;P2;SDS_P1;SDS_P2;PMS_P1;PMS_P2;Temp;Humidity;BMP_temperature;BMP_pressure;BME280_temperature;BME280_humidity;BME280_pressure;Samples;Min_cycle;Max_cycle;Signal;HPM_P1;HPM_P2
2022/05/20 00:00:36;;;;;;;5.20;3.40;;;8.90;83.20;;;;;;4999347;28;20057;-76
2022/05/20 00:03:02;;;;;;;8.55;3.33;;;8.80;83.30;;;;;;4998844;28;20038;-76
2022/05/20 00:05:29;;;;;;;6.50;3.58;;;8.90;82.90;;;;;;4998726;28;20030;-75
2022/05/20 00:07:55;;;;;;;7.25;4.22;;;8.90;82.60;;;;;;4998549;28;20034;-76
2022/05/20 00:10:21;;;;;;;6.93;3.80;;;8.90;82.50;;;;;;4998623;28;20026;-77
2022/05/20 00:12:48;;;;;;;5.53;3.33;;;8.90;83.00;;;;;;5003034;28;20429;-76
2022/05/20 00:15:17;;;;;;;9.90;3.55;;;8.90;82.60;;;;;;5018139;28;20130;-76
2022/05/20 00:17:43;;;;;;;5.25;3.25;;;8.90;82.10;;;;;;5000338;28;20487;-76
2022/05/20 00:20:11;;;;;;;6.53;3.63;;;8.90;82.00;;;;;;4997923;28;20022;-75
2022/05/20 00:22:38;;;;;;;6.43;2.88;;;8.90;81.90;;;;;;4993448;28;20042;-76
2022/05/20 00:27:49;;;;;;;6.20;3.15;;;8.90;81.10;;;;;;4995678;28;20530;-78
2022/05/20 00:30:15;;;;;;;4.75;2.88;;;8.90;81.10;;;;;;4995132;28;20058;-76
2022/05/20 00:32:41;;;;;;;4.70;2.95;;;8.90;80.90;;;;;;4995210;28;20026;-77
2022/05/20 00:35:08;;;;;;;5.80;3.80;;;8.90;81.10;;;;;;4995202;28;20073;-77
2022/05/20 00:37:34;;;;;;;6.18;3.08;;;8.90;80.80;;;;;;4995149;28;20018;-76
2022/05/20 00:40:00;;;;;;;8.02;3.67;;;8.90;80.80;;;;;;4994990;28;20093;-75
2022/05/20 00:42:26;;;;;;;9.10;3.28;;;8.80;80.30;;;;;;4995053;28;20054;-77
2022/05/20 00:44:52;;;;;;;7.05;3.38;;;8.80;80.20;;;;;;4995420;28;20027;-75
2022/05/20 00:47:17;;;;;;;5.25;3.20;;;8.80;80.20;;;;;;4995272;28;20057;-76
2022/05/20 00:49:52;;;;;;;8.02;3.13;;;8.80;80.00;;;;;;4995131;28;20026;-76
2022/05/20 00:52:23;;;;;;;4.82;3.08;;;8.70;80.20;;;;;;4994933;28;20034;-76
2022/05/20 00:54:54;;;;;;;6.47;2.92;;;8.60;80.30;;;;;;4994944;28;20035;-76
2022/05/20 00:57:42;;;;;;;5.03;3.00;;;8.60;80.60;;;;;;4994871;28;20400;-75
2022/05/20 01:00:26;;;;;;;4.32;3.08;;;8.50;80.90;;;;;;4994688;28;20018;-78
2022/05/20 01:02:58;;;;;;;5.03;3.13;;;8.50;80.60;;;;;;4994418;28;20515;-76
2022/05/20 01:05:46;;;;;;;6.30;2.35;;;8.50;80.80;;;;;;4994644;28;20031;-76
2022/05/20 01:08:19;;;;;;;4.60;2.40;;;8.50;81.20;;;;;;4976639;28;20065;-75
2022/05/20 01:10:45;;;;;;;4.25;2.75;;;8.50;81.40;;;;;;4977532;28;20377;-77
2022/05/20 01:13:13;;;;;;;5.60;2.33;;;8.50;81.40;;;;;;4994683;28;20027;-75
2022/05/20 01:15:39;;;;;;;3.42;2.63;;;8.40;81.60;;;;;;4994547;28;20046;-76
2022/05/20 01:18:05;;;;;;;3.15;2.45;;;8.40;81.60;;;;;;4994175;28;20034;-77
2022/05/20 01:20:35;;;;;;;2.75;2.40;;;8.40;81.80;;;;;;4994462;28;20392;-77
2022/05/20 01:23:07;;;;;;;2.90;2.20;;;8.40;82.10;;;;;;4992711;28;20038;-74
2022/05/20 01:25:33;;;;;;;4.00;2.47;;;8.40;82.00;;;;;;5001389;28;20045;-77
2022/05/20 01:27:59;;;;;;;4.40;2.30;;;8.40;81.80;;;;;;5013614;28;20034;-76
2022/05/20 01:30:28;;;;;;;5.15;2.53;;;8.40;81.80;;;;;;5013480;28;20046;-77
2022/05/20 01:32:54;;;;;;;3.00;2.55;;;8.40;81.60;;;;;;4995664;28;20080;-75
2022/05/20 01:35:43;;;;;;;6.38;2.53;;;8.40;80.60;;;;;;5013607;28;20029;-76
2022/05/20 01:38:11;;;;;;;3.28;2.30;;;8.30;80.70;;;;;;5012325;28;20022;-76
2022/05/20 01:40:48;;;;;;;3.60;2.55;;;8.30;80.70;;;;;;5013418;28;20022;-77
2022/05/20 01:43:38;;;;;;;3.25;2.00;;;8.30;79.40;;;;;;5013350;28;20029;-76
2022/05/20 01:46:25;;;;;;;3.50;2.25;;;8.30;79.40;;;;;;5013672;28;20032;-76
2022/05/20 01:49:10;;;;;;;5.45;2.20;;;8.20;78.60;;;;;;4997390;28;20030;-77
2022/05/20 01:52:00;;;;;;;3.40;2.33;;;8.20;78.60;;;;;;5015705;28;20443;-77
2022/05/20 01:54:54;;;;;;;3.58;2.13;;;8.20;79.00;;;;;;5013544;28;20022;-76
2022/05/20 01:57:31;;;;;;;5.55;1.98;;;8.20;78.20;;;;;;5013537;28;20041;-78
2022/05/20 02:00:09;;;;;;;2.80;1.80;;;8.10;78.20;;;;;;5013705;28;20029;-77
2022/05/20 02:02:50;;;;;;;4.07;2.00;;;8.20;78.80;;;;;;5013470;28;20037;-76
2022/05/20 02:05:27;;;;;;;2.50;1.58;;;8.20;78.90;;;;;;5013217;28;20061;-77
2022/05/20 02:08:09;;;;;;;3.45;1.77;;;8.20;78.70;;;;;;5013062;28;20026;-77
2022/05/20 02:10:40;;;;;;;2.53;1.75;;;8.20;78.50;;;;;;5013177;28;20083;-77
2022/05/20 02:13:10;;;;;;;2.85;1.60;;;8.20;78.50;;;;;;5013150;28;20160;-77
2022/05/20 02:15:44;;;;;;;1.83;1.63;;;8.20;78.40;;;;;;5013155;28;20026;-78
2022/05/20 02:18:16;;;;;;;3.88;1.52;;;8.10;78.10;;;;;;4992501;28;20048;-77
2022/05/20 02:20:54;;;;;;;2.33;1.80;;;8.20;77.80;;;;;;4993475;28;20026;-76
2022/05/20 02:23:31;;;;;;;3.05;1.70;;;8.20;77.40;;;;;;4998351;28;20038;-76
2022/05/20 02:26:06;;;;;;;2.42;1.23;;;8.30;77.10;;;;;;4977397;28;20018;-77
2022/05/20 02:28:42;;;;;;;2.85;1.90;;;8.30;76.80;;;;;;4993018;28;20026;-76
2022/05/20 02:31:13;;;;;;;2.85;1.48;;;8.40;75.80;;;;;;4975618;28;20518;-78
2022/05/20 02:33:39;;;;;;;3.47;1.60;;;8.40;75.00;;;;;;4992964;28;20081;-76
2022/05/20 02:36:28;;;;;;;2.58;1.52;;;8.40;74.30;;;;;;4993115;28;20030;-76
2022/05/20 02:38:54;;;;;;;2.17;1.23;;;8.40;74.30;;;;;;4992952;28;20101;-77
2022/05/20 02:41:20;;;;;;;1.80;1.38;;;8.50;73.60;;;;;;4992855;28;20030;-79
2022/05/20 02:43:45;;;;;;;1.90;1.35;;;8.50;72.40;;;;;;4992204;28;20026;-78
2022/05/20 02:46:12;;;;;;;3.17;1.48;;;8.60;72.40;;;;;;4992909;28;20026;-77
2022/05/20 02:48:38;;;;;;;1.80;1.30;;;8.70;72.00;;;;;;4975380;28;20018;-77
2022/05/20 02:51:04;;;;;;;2.65;1.48;;;8.70;71.30;;;;;;4992977;28;20030;-76
2022/05/20 02:53:30;;;;;;;1.30;1.05;;;8.80;70.20;;;;;;4993199;28;20053;-77
2022/05/20 02:55:56;;;;;;;2.60;1.35;;;8.80;69.90;;;;;;4994044;28;20085;-76
2022/05/20 03:04:10;;;;;;;1.75;1.23;;;8.70;69.00;;;;;;4993048;28;20049;-77
2022/05/20 03:06:37;;;;;;;3.58;1.30;;;8.70;69.80;;;;;;4992834;28;20030;-78
2022/05/20 03:09:05;;;;;;;1.80;1.33;;;8.70;69.50;;;;;;4992687;28;20098;-77
2022/05/20 03:11:33;;;;;;;5.65;1.58;;;8.80;69.60;;;;;;4992703;28;20018;-78
2022/05/20 03:13:59;;;;;;;2.67;1.50;;;8.80;69.60;;;;;;4975344;28;20062;-78
2022/05/20 03:16:25;;;;;;;2.75;1.55;;;8.90;69.30;;;;;;4992605;28;20109;-76
2022/05/20 03:18:51;;;;;;;2.15;1.80;;;8.90;68.90;;;;;;4992584;28;20053;-77
2022/05/20 03:21:16;;;;;;;2.42;1.10;;;8.90;69.00;;;;;;4992677;28;20030;-75
2022/05/20 03:23:42;;;;;;;2.72;1.38;;;8.90;68.90;;;;;;4992375;28;20113;-75
2022/05/20 03:26:08;;;;;;;2.30;1.58;;;8.80;68.70;;;;;;4992584;28;20023;-78
2022/05/20 03:28:34;;;;;;;4.28;1.50;;;8.80;68.90;;;;;;4994062;28;20077;-77
2022/05/20 03:31:07;;;;;;;4.15;1.80;;;8.80;68.80;;;;;;5011907;28;20049;-76
2022/05/20 03:33:34;;;;;;;3.92;1.63;;;8.90;68.90;;;;;;5012100;28;20022;-78
2022/05/20 03:36:00;;;;;;;3.57;1.37;;;9.00;68.50;;;;;;5012551;28;20026;-77
2022/05/20 03:38:25;;;;;;;3.22;1.40;;;9.00;68.40;;;;;;5013385;28;20531;-77
2022/05/20 03:40:51;;;;;;;2.25;1.35;;;8.90;68.30;;;;;;5012552;28;20030;-77
2022/05/20 03:43:17;;;;;;;2.50;1.38;;;8.90;68.80;;;;;;5012867;28;20091;-76
2022/05/20 03:45:43;;;;;;;3.90;1.42;;;8.80;68.50;;;;;;5013652;28;20026;-77
2022/05/20 03:48:10;;;;;;;3.90;1.50;;;8.80;69.10;;;;;;5012793;28;20487;-77
2022/05/20 03:50:36;;;;;;;4.07;1.60;;;8.80;69.10;;;;;;5012098;28;20192;-77
2022/05/20 03:53:02;;;;;;;2.35;1.27;;;8.90;68.80;;;;;;5011838;28;20555;-77
2022/05/20 03:55:29;;;;;;;3.37;1.37;;;8.90;69.10;;;;;;5013504;28;20245;-77
2022/05/20 03:57:55;;;;;;;2.60;1.20;;;8.90;69.20;;;;;;5015656;28;20136;-77
2022/05/20 04:00:21;;;;;;;7.00;1.60;;;8.90;68.80;;;;;;5015649;28;20383;-77
2022/05/20 04:02:47;;;;;;;3.42;1.70;;;8.90;69.30;;;;;;5015322;28;20045;-76
2022/05/20 04:05:13;;;;;;;2.00;1.58;;;9.00;69.40;;;;;;5015541;28;20033;-76
2022/05/20 04:07:39;;;;;;;4.20;1.40;;;9.10;69.40;;;;;;5015456;28;20116;-77
2022/05/20 04:10:07;;;;;;;2.92;1.40;;;9.20;68.00;;;;;;5015433;28;20053;-78
2022/05/20 04:12:40;;;;;;;3.75;1.75;;;9.20;68.00;;;;;;5015307;28;20021;-75
2022/05/20 04:15:08;;;;;;;2.22;1.45;;;9.20;68.50;;;;;;5011225;28;20010;-77
2022/05/20 04:17:34;;;;;;;1.33;1.20;;;9.10;68.30;;;;;;4995766;28;20444;-77
2022/05/20 04:20:00;;;;;;;3.60;2.50;;;9.10;68.40;;;;;;4995239;28;20104;-76
2022/05/20 04:22:31;;;;;;;5.97;2.20;;;9.10;67.10;;;;;;4994985;28;20074;-76
2022/05/20 04:24:58;;;;;;;1.20;1.00;;;9.10;67.90;;;;;;4977689;28;20040;-77
2022/05/20 04:27:27;;;;;;;3.88;1.48;;;9.10;67.00;;;;;;4995370;28;20496;-76
2022/05/20 04:29:53;;;;;;;3.10;1.90;;;8.90;66.80;;;;;;4977867;28;20026;-77
2022/05/20 04:32:20;;;;;;;4.22;1.65;;;8.80;67.50;;;;;;5014744;28;20124;-78
2022/05/20 04:34:46;;;;;;;4.05;1.75;;;8.80;66.80;;;;;;5014858;28;20022;-76
2022/05/20 04:37:11;;;;;;;4.72;1.90;;;8.80;67.40;;;;;;5014705;28;20088;-76
2022/05/20 04:39:37;;;;;;;4.05;1.80;;;8.90;68.00;;;;;;5013313;28;20021;-78
2022/05/20 04:48:15;;;;;;;3.75;2.35;;;9.10;66.80;;;;;;5016348;28;20048;-80
2022/05/20 04:56:52;;;;;;;4.82;2.15;;;9.30;67.00;;;;;;5014392;28;20037;-77
2022/05/20 04:59:20;;;;;;;3.60;1.88;;;9.80;66.70;;;;;;5014271;28;20235;-76
2022/05/20 05:01:48;;;;;;;5.57;1.88;;;10.70;63.50;;;;;;5014215;28;20365;-77
2022/05/20 05:04:16;;;;;;;3.35;1.70;;;11.90;60.10;;;;;;5014407;28;20125;-77
2022/05/20 05:06:42;;;;;;;2.72;1.75;;;12.90;56.30;;;;;;5013902;28;20146;-76
2022/05/20 05:09:08;;;;;;;2.78;1.70;;;13.20;53.10;;;;;;5014349;28;20070;-77
2022/05/20 05:11:36;;;;;;;9.75;4.47;;;13.70;51.80;;;;;;5014395;28;20376;-78
2022/05/20 05:14:02;;;;;;;4.35;1.70;;;14.20;49.20;;;;;;5008272;28;20046;-77
2022/05/20 05:16:28;;;;;;;2.78;1.63;;;14.80;48.70;;;;;;4994488;28;20515;-79
2022/05/20 05:18:54;;;;;;;7.45;1.80;;;15.60;46.40;;;;;;4993936;28;20074;-76
2022/05/20 05:21:20;;;;;;;1.73;1.17;;;16.20;44.10;;;;;;5012400;28;20078;-77
2022/05/20 05:23:46;;;;;;;2.85;1.60;;;16.30;42.30;;;;;;5012859;28;20100;-81
2022/05/20 05:26:13;;;;;;;1.60;1.10;;;16.00;42.00;;;;;;4994132;28;20022;-79
2022/05/20 05:28:39;;;;;;;2.42;1.17;;;16.10;41.00;;;;;;4994540;28;20030;-78
2022/05/20 05:31:05;;;;;;;2.83;1.58;;;16.40;40.60;;;;;;4994074;28;20455;-77
2022/05/20 05:33:30;;;;;;;2.45;1.30;;;16.40;40.40;;;;;;4992991;28;20037;-78
2022/05/20 05:35:56;;;;;;;4.75;1.17;;;16.90;39.70;;;;;;5013763;28;20363;-78
2022/05/20 05:38:22;;;;;;;1.60;1.27;;;17.60;38.70;;;;;;5013846;28;20036;-79
2022/05/20 05:40:49;;;;;;;2.83;0.93;;;17.40;37.60;;;;;;4996088;28;20064;-79
2022/05/20 05:43:15;;;;;;;2.75;0.95;;;17.20;37.40;;;;;;5014596;28;20045;-77
2022/05/20 05:45:41;;;;;;;4.30;1.63;;;17.00;35.50;;;;;;5015495;28;20029;-79
2022/05/20 05:48:09;;;;;;;2.25;1.30;;;17.00;35.80;;;;;;5014742;28;20030;-80
2022/05/20 05:50:48;;;;;;;2.85;1.10;;;17.10;36.90;;;;;;5013643;28;20021;-80
2022/05/20 05:57:18;;;;;;;2.15;0.93;;;18.20;36.40;;;;;;4971842;28;20031;-80
2022/05/20 05:59:43;;;;;;;8.80;1.25;;;18.70;33.60;;;;;;4971154;28;20038;-80
2022/05/20 06:02:10;;;;;;;2.25;1.08;;;19.00;33.20;;;;;;5011543;28;20041;-79
2022/05/20 06:04:36;;;;;;;2.30;1.20;;;19.40;33.20;;;;;;5013947;28;20088;-77
2022/05/20 06:07:03;;;;;;;12.68;2.38;;;20.10;33.20;;;;;;4993955;28;20026;-77
2022/05/20 06:09:29;;;;;;;2.25;1.40;;;20.20;33.20;;;;;;4992842;28;20034;-78
2022/05/20 06:11:54;;;;;;;5.50;1.65;;;21.50;32.80;;;;;;4993178;28;20452;-77
2022/05/20 06:14:30;;;;;;;3.13;1.08;;;23.10;31.90;;;;;;4992513;28;20480;-79
2022/05/20 06:16:56;;;;;;;1.90;0.90;;;24.10;29.70;;;;;;4993020;28;20045;-79
2022/05/20 06:19:22;;;;;;;1.25;0.82;;;24.60;28.90;;;;;;4992196;28;20026;-79
2022/05/20 06:21:48;;;;;;;2.53;1.10;;;23.40;28.40;;;;;;4993184;28;20390;-77
2022/05/20 06:24:14;;;;;;;2.10;1.15;;;23.00;29.40;;;;;;4993356;28;20034;-80
2022/05/20 06:26:41;;;;;;;1.95;1.42;;;23.80;29.30;;;;;;4994032;28;20050;-80
2022/05/20 06:29:07;;;;;;;;;;;24.60;28.50;;;;;;4977088;28;20041;-80
2022/05/20 06:31:33;;;;;;;4.95;1.00;;;25.00;29.70;;;;;;4994255;28;19977;-78
2022/05/20 06:33:59;;;;;;;1.60;0.47;;;25.90;27.30;;;;;;4994877;28;20034;-79
2022/05/20 06:39:49;;;;;;;2.22;1.30;;;26.50;26.50;;;;;;4994556;28;20045;-81
2022/05/20 06:41:59;;;;;;;2.85;1.35;;;26.30;26.60;;;;;;5010560;28;20379;-79
2022/05/20 06:44:28;;;;;;;6.88;2.00;;;25.90;27.00;;;;;;5012577;28;20121;-80
2022/05/20 06:46:53;;;;;;;6.03;2.13;;;26.00;26.80;;;;;;5011456;28;20030;-80
2022/05/20 06:49:19;;;;;;;3.38;1.10;;;26.90;26.40;;;;;;5012701;28;20030;-80
2022/05/20 06:51:46;;;;;;;21.83;3.13;;;26.30;25.40;;;;;;5012364;28;20068;-80
2022/05/20 06:54:12;;;;;;;6.95;2.08;;;25.40;26.20;;;;;;5012713;28;20029;-79
2022/05/20 06:56:39;;;;;;;3.65;1.27;;;24.60;26.60;;;;;;5012259;28;20488;-81
2022/05/20 06:59:06;;;;;;;10.95;2.53;;;25.00;26.80;;;;;;5012730;28;20018;-79
2022/05/20 07:01:32;;;;;;;2.58;0.90;;;25.90;26.40;;;;;;5004307;28;20085;-80
2022/05/20 07:03:58;;;;;;;3.28;1.20;;;27.00;25.60;;;;;;4992739;28;20046;-80
2022/05/20 07:06:25;;;;;;;2.58;1.10;;;27.00;24.70;;;;;;4975322;28;20033;-81
2022/05/20 07:08:52;;;;;;;1.95;1.10;;;27.10;24.90;;;;;;4992728;28;20034;-80
2022/05/20 07:11:22;;;;;;;2.08;1.20;;;27.50;24.70;;;;;;4992537;28;20022;-81
2022/05/20 07:13:52;;;;;;;34.47;6.93;;;28.30;25.00;;;;;;4993313;28;20407;-79
2022/05/20 07:16:18;;;;;;;4.50;1.60;;;28.60;25.00;;;;;;4997226;28;20053;-79
2022/05/20 07:18:44;;;;;;;1.52;1.10;;;28.40;24.20;;;;;;4995659;28;20448;-80
2022/05/20 07:21:10;;;;;;;10.77;2.05;;;27.80;24.40;;;;;;4998769;28;20039;-79
2022/05/20 07:23:35;;;;;;;2.75;1.52;;;27.70;24.90;;;;;;4993474;28;20061;-78
2022/05/20 07:26:02;;;;;;;2.15;1.42;;;27.30;25.00;;;;;;4993073;28;20097;-81
2022/05/20 07:28:29;;;;;;;2.83;1.30;;;27.40;25.00;;;;;;4975626;28;20033;-82
2022/05/20 07:30:55;;;;;;;6.40;1.73;;;27.10;24.50;;;;;;4994975;28;20076;-81
2022/05/20 07:33:21;;;;;;;7.55;2.10;;;26.70;25.00;;;;;;4996480;28;20048;-81
2022/05/20 07:35:47;;;;;;;2.45;1.23;;;27.00;25.00;;;;;;4980950;28;20030;-80
2022/05/20 07:38:13;;;;;;;3.13;1.20;;;27.90;24.40;;;;;;4996644;28;20023;-80
2022/05/20 07:40:39;;;;;;;23.17;4.57;;;28.90;23.60;;;;;;5010515;28;20026;-80
2022/05/20 07:43:05;;;;;;;4.50;1.63;;;29.60;23.00;;;;;;5019588;28;20133;-79
2022/05/20 07:45:31;;;;;;;3.42;1.63;;;27.70;23.00;;;;;;5017903;28;20053;-80
2022/05/20 07:47:57;;;;;;;2.33;1.20;;;26.50;23.70;;;;;;5016160;28;20390;-80
2022/05/20 07:50:22;;;;;;;2.72;1.05;;;25.40;24.40;;;;;;5015654;28;20018;-81
2022/05/20 07:55:40;;;;;;;5.45;1.52;;;24.80;25.50;;;;;;5015970;28;20041;-80
2022/05/20 07:58:11;;;;;;;3.35;1.50;;;25.40;25.30;;;;;;4998519;28;20088;-81
2022/05/20 08:00:37;;;;;;;4.03;1.50;;;27.00;24.90;;;;;;5015864;28;20388;-80
2022/05/20 08:03:04;;;;;;;2.78;1.50;;;28.40;23.90;;;;;;5014342;28;20483;-82
2022/05/20 08:05:31;;;;;;;2.47;1.45;;;29.10;23.20;;;;;;5016030;28;20387;-80
2022/05/20 08:08:02;;;;;;;2.83;1.48;;;29.20;23.00;;;;;;5015805;28;20490;-80
2022/05/20 08:10:30;;;;;;;4.03;1.60;;;29.80;23.20;;;;;;5006575;28;20018;-80
2022/05/20 08:12:56;;;;;;;6.22;1.58;;;30.50;23.20;;;;;;4978514;28;20031;-81
2022/05/20 08:15:24;;;;;;;3.10;1.90;;;31.40;23.00;;;;;;4996052;28;20027;-80
2022/05/20 08:17:50;;;;;;;3.05;1.65;;;31.10;23.30;;;;;;4995547;28;20124;-81
2022/05/20 08:20:27;;;;;;;1.80;1.50;;;31.10;23.00;;;;;;4979921;28;20034;-82
2022/05/20 08:22:53;;;;;;;2.97;1.63;;;31.20;22.60;;;;;;4995928;28;20392;-81
2022/05/20 08:25:20;;;;;;;2.65;1.40;;;30.70;22.60;;;;;;4995737;28;20037;-81
2022/05/20 08:27:46;;;;;;;5.82;1.60;;;31.10;22.70;;;;;;4996228;28;20034;-82
2022/05/20 08:30:33;;;;;;;3.47;1.58;;;31.80;22.80;;;;;;4982554;28;20035;-81
2022/05/20 08:32:58;;;;;;;3.60;1.77;;;32.20;22.10;;;;;;4995522;28;20050;-82
2022/05/20 08:35:27;;;;;;;2.40;1.70;;;30.20;22.50;;;;;;4990953;28;20044;-82
2022/05/20 08:37:54;;;;;;;5.45;1.90;;;29.60;23.00;;;;;;5015053;28;20029;-81
2022/05/20 08:40:44;;;;;;;2.63;1.70;;;30.30;23.50;;;;;;5015069;28;20030;-81
2022/05/20 08:43:12;;;;;;;3.78;1.80;;;31.50;22.90;;;;;;5014491;28;20049;-82
2022/05/20 08:45:37;;;;;;;2.40;1.70;;;32.20;22.50;;;;;;5015426;28;20018;-82
2022/05/20 08:48:05;;;;;;;2.03;1.33;;;32.50;22.30;;;;;;5015200;28;20032;-80
2022/05/20 08:50:41;;;;;;;5.13;1.20;;;32.00;22.20;;;;;;4996291;28;20026;-82
2022/05/20 08:53:17;;;;;;;2.55;1.30;;;31.50;22.20;;;;;;5015101;28;20029;-81
2022/05/20 08:55:44;;;;;;;2.75;1.27;;;30.60;22.40;;;;;;5014918;28;20549;-81
2022/05/20 08:58:12;;;;;;;2.15;0.95;;;28.90;22.80;;;;;;5014711;28;20697;-82
2022/05/20 09:00:38;;;;;;;2.65;1.45;;;27.60;23.60;;;;;;5014900;28;20033;-81
2022/05/20 09:03:07;;;;;;;0.88;0.75;;;28.00;23.60;;;;;;5014800;28;20022;-80
2022/05/20 09:05:38;;;;;;;1.25;0.93;;;29.20;23.50;;;;;;4997598;28;20045;-82
2022/05/20 09:08:21;;;;;;;1.33;0.80;;;30.60;22.50;;;;;;4999338;28;20034;-80
2022/05/20 09:10:50;;;;;;;2.05;0.85;;;30.30;22.40;;;;;;4995065;28;20026;-81
2022/05/20 09:16:28;;;;;;;2.50;1.08;;;31.80;22.30;;;;;;4994953;28;20032;-80
2022/05/20 09:19:08;;;;;;;2.03;1.10;;;31.50;21.90;;;;;;4994899;28;20018;-82
2022/05/20 09:21:38;;;;;;;3.70;1.40;;;31.40;21.90;;;;;;4995075;28;20057;-82
2022/05/20 09:24:07;;;;;;;2.95;1.00;;;31.80;21.80;;;;;;4997664;28;20109;-82
2022/05/20 09:26:45;;;;;;;1.67;0.90;;;32.10;21.40;;;;;;4997034;28;20022;-78
2022/05/20 09:29:41;;;;;;;2.50;1.00;;;32.00;21.30;;;;;;5000344;28;20035;-81
2022/05/20 09:32:25;;;;;;;2.47;0.80;;;31.50;21.30;;;;;;4989861;28;20085;-83
2022/05/20 09:35:05;;;;;;;3.42;1.00;;;30.30;20.60;;;;;;4979426;28;20518;-81
2022/05/20 09:37:34;;;;;;;2.90;1.13;;;29.60;21.70;;;;;;4996227;28;20379;-82
2022/05/20 09:40:31;;;;;;;2.17;1.00;;;30.10;21.80;;;;;;4984409;28;20048;-83
2022/05/20 09:42:57;;;;;;;2.50;1.52;;;31.00;21.70;;;;;;5000368;28;20041;-82
2022/05/20 09:45:23;;;;;;;1.92;1.20;;;31.20;21.50;;;;;;4995940;28;20435;-81
2022/05/20 09:47:53;;;;;;;6.90;1.87;;;30.80;21.70;;;;;;4977248;28;20030;-79
2022/05/20 09:50:31;;;;;;;2.53;1.08;;;31.20;21.60;;;;;;4994596;28;20034;-83
2022/05/20 09:52:58;;;;;;;2.15;1.23;;;31.40;21.50;;;;;;4994742;28;20035;-81
2022/05/20 09:55:27;;;;;;;5.65;1.60;;;30.90;21.30;;;;;;4993655;28;20034;-81
2022/05/20 09:57:56;;;;;;;3.45;1.35;;;29.70;21.80;;;;;;4980521;28;20022;-82
2022/05/20 10:00:32;;;;;;;4.38;1.15;;;29.10;22.00;;;;;;5013563;28;20419;-81
2022/05/20 10:03:25;;;;;;;5.57;1.05;;;28.70;22.30;;;;;;5013652;28;20419;-81
2022/05/20 10:06:07;;;;;;;3.22;1.00;;;29.50;22.30;;;;;;5014013;28;20574;-81
2022/05/20 10:08:44;;;;;;;5.63;1.15;;;30.20;21.90;;;;;;4996222;28;20080;-81
2022/05/20 10:11:19;;;;;;;3.05;1.20;;;30.00;21.80;;;;;;5013547;28;20022;-82
2022/05/20 10:13:53;;;;;;;1.35;1.15;;;30.10;21.80;;;;;;5013541;28;20034;-81
2022/05/20 10:16:47;;;;;;;2.72;1.02;;;30.70;21.50;;;;;;4999897;28;20022;-80
2022/05/20 10:19:39;;;;;;;18.73;4.90;;;30.10;21.70;;;;;;4994025;28;20039;-82
2022/05/20 10:22:21;;;;;;;3.63;1.00;;;29.60;21.90;;;;;;4993897;28;20459;-82
2022/05/20 10:25:26;;;;;;;2.95;1.05;;;29.60;21.90;;;;;;4993854;28;20033;-82
2022/05/20 10:28:05;;;;;;;15.75;2.35;;;27.50;21.90;;;;;;4976489;28;20085;-81
2022/05/20 10:33:38;;;;;;;1.27;0.93;;;22.70;25.00;;;;;;4940313;28;20135;-81
2022/05/20 10:36:07;;;;;;;;;;;21.10;25.90;;;;;;4976725;28;20018;-82
2022/05/20 10:38:52;;;;;;;3.58;1.48;;;20.00;25.90;;;;;;4993576;28;20326;-81
2022/05/20 10:41:31;;;;;;;11.70;2.47;;;18.90;27.00;;;;;;4993255;28;20357;-81
2022/05/20 10:50:55;;;;;;;2.35;1.10;;;16.10;29.40;;;;;;4994313;28;20033;-79
2022/05/20 10:53:35;;;;;;;1.65;1.10;;;15.60;30.30;;;;;;4996528;28;20095;-80
2022/05/20 10:56:31;;;;;;;1.77;1.17;;;15.00;30.90;;;;;;4983328;28;20026;-79
2022/05/20 10:59:00;;;;;;;4.90;1.27;;;14.70;31.00;;;;;;4993757;28;20030;-84
2022/05/20 11:01:43;;;;;;;2.80;1.80;;;14.50;30.80;;;;;;4993780;28;20026;-81
2022/05/20 11:04:36;;;;;;;4.18;1.60;;;14.30;31.90;;;;;;4975405;28;20398;-82
2022/05/20 11:07:11;;;;;;;1.67;0.90;;;14.20;32.80;;;;;;4985886;28;20392;-81
2022/05/20 11:10:03;;;;;;;2.38;1.20;;;14.10;32.30;;;;;;4976536;28;20365;-80
2022/05/20 11:12:45;;;;;;;3.15;1.42;;;14.10;32.80;;;;;;4993169;28;20113;-81
2022/05/20 11:15:31;;;;;;;4.20;1.83;;;13.90;33.60;;;;;;4992977;28;20049;-82
2022/05/20 11:18:07;;;;;;;2.28;1.88;;;13.90;33.40;;;;;;4992970;28;20041;-80
2022/05/20 11:21:13;;;;;;;7.93;1.50;;;13.80;34.50;;;;;;4993132;28;20109;-80
2022/05/20 11:24:10;;;;;;;9.95;2.28;;;13.90;34.10;;;;;;4944456;28;20030;-81
2022/05/20 11:27:05;;;;;;;2.15;1.48;;;14.00;35.10;;;;;;4993365;28;20027;-79
2022/05/20 11:29:53;;;;;;;3.28;1.83;;;14.10;34.90;;;;;;4924498;28;20036;-81
2022/05/20 11:32:41;;;;;;;7.90;2.90;;;14.00;35.50;;;;;;4975553;28;20511;-80
2022/05/20 11:35:29;;;;;;;3.03;1.60;;;14.00;35.00;;;;;;4992239;28;20035;-81
2022/05/20 11:38:19;;;;;;;3.28;1.67;;;14.00;34.20;;;;;;4978260;28;20022;-78
2022/05/20 11:41:04;;;;;;;5.43;1.95;;;14.00;34.20;;;;;;5014296;28;20056;-79
2022/05/20 11:44:01;;;;;;;5.35;2.20;;;13.90;34.10;;;;;;5021791;28;20037;-80
2022/05/20 11:46:45;;;;;;;4.18;1.35;;;13.90;33.80;;;;;;5016107;28;20356;-81
2022/05/20 11:49:17;;;;;;;2.30;1.15;;;13.80;34.00;;;;;;5013790;28;20029;-82
2022/05/20 11:51:42;;;;;;;2.38;1.77;;;13.60;34.40;;;;;;5011798;28;20105;-80
2022/05/20 11:54:12;;;;;;;3.15;1.63;;;13.60;34.40;;;;;;5012914;28;20120;-81
2022/05/20 11:56:57;;;;;;;3.65;1.60;;;13.60;33.70;;;;;;5012898;28;20066;-80
2022/05/20 11:59:40;;;;;;;6.55;2.47;;;13.60;34.00;;;;;;5012429;28;20030;-79
2022/05/20 12:02:09;;;;;;;1.98;1.10;;;13.60;34.00;;;;;;5013192;28;20085;-81
2022/05/20 12:04:36;;;;;;;3.15;1.17;;;13.60;33.60;;;;;;5009680;28;20032;-79
2022/05/20 12:07:15;;;;;;;4.30;1.92;;;13.60;34.30;;;;;;4995166;28;20103;-81
2022/05/20 12:09:49;;;;;;;3.47;1.48;;;13.70;34.10;;;;;;4995445;28;20513;-78
2022/05/20 12:12:31;;;;;;;2.58;1.63;;;13.70;33.80;;;;;;4993441;28;20065;-81
2022/05/20 12:14:58;;;;;;;3.40;1.60;;;13.70;34.10;;;;;;4975620;28;20026;-79
2022/05/20 12:17:32;;;;;;;3.47;1.23;;;13.70;33.70;;;;;;4995866;28;20480;-81
2022/05/20 12:25:42;;;;;;;1.52;0.98;;;13.50;32.20;;;;;;4995881;28;20045;-82
2022/05/20 12:28:30;;;;;;;3.35;1.20;;;13.50;32.30;;;;;;4995619;28;20034;-81
2022/05/20 12:31:14;;;;;;;4.47;2.22;;;13.40;32.30;;;;;;4978104;28;20100;-81
2022/05/20 12:34:05;;;;;;;3.72;1.27;;;13.40;33.30;;;;;;4995569;28;20483;-79
2022/05/20 12:36:43;;;;;;;2.60;1.58;;;13.50;33.80;;;;;;4974895;28;20039;-82
2022/05/20 12:39:14;;;;;;;3.72;1.48;;;13.60;33.80;;;;;;4996608;28;20034;-81
2022/05/20 12:41:45;;;;;;;4.82;1.50;;;13.60;34.00;;;;;;5014964;28;20033;-80
2022/05/20 12:44:16;;;;;;;4.32;2.08;;;13.60;34.40;;;;;;5014741;28;20615;-81
2022/05/20 12:47:16;;;;;;;3.72;1.55;;;13.60;34.40;;;;;;5014779;28;20033;-79
2022/05/20 12:49:54;;;;;;;2.65;1.00;;;13.60;33.80;;;;;;5014994;28;20129;-80
2022/05/20 12:52:35;;;;;;;2.85;1.13;;;13.50;33.90;;;;;;5014698;28;20034;-81
2022/05/20 12:55:17;;;;;;;2.90;1.40;;;13.40;34.80;;;;;;5013425;28;20030;-78
2022/05/20 12:57:55;;;;;;;2.85;1.00;;;13.50;35.50;;;;;;5014928;28;20030;-79
2022/05/20 13:00:34;;;;;;;2.78;1.38;;;13.40;34.80;;;;;;5014948;28;20064;-79
2022/05/20 13:03:05;;;;;;;3.95;1.27;;;13.40;34.60;;;;;;5011921;28;20092;-79
2022/05/20 13:05:38;;;;;;;3.28;1.60;;;13.40;35.00;;;;;;4995100;28;20377;-80
2022/05/20 13:08:10;;;;;;;7.80;2.33;;;13.60;35.30;;;;;;4995028;28;20101;-79
2022/05/20 13:10:39;;;;;;;5.05;1.95;;;13.60;35.00;;;;;;4993460;28;20032;-80
2022/05/20 13:13:05;;;;;;;1.27;1.05;;;13.70;34.70;;;;;;4993463;28;20121;-79
2022/05/20 13:15:31;;;;;;;3.20;1.63;;;13.70;34.20;;;;;;4994885;28;20105;-78
2022/05/20 13:18:08;;;;;;;3.75;2.65;;;13.70;34.30;;;;;;4998820;28;20030;-80
2022/05/20 13:20:36;;;;;;;3.72;1.67;;;13.70;34.90;;;;;;4999894;28;20026;-80
2022/05/20 13:23:05;;;;;;;5.00;1.67;;;13.80;34.50;;;;;;5015523;28;20113;-79
2022/05/20 13:25:31;;;;;;;4.03;1.38;;;13.80;34.70;;;;;;4996247;28;20041;-79
2022/05/20 13:27:59;;;;;;;4.78;1.42;;;13.80;34.00;;;;;;5013217;28;20432;-79
2022/05/20 13:30:31;;;;;;;3.97;1.67;;;13.80;33.70;;;;;;5013902;28;20041;-81
2022/05/20 13:33:06;;;;;;;4.85;1.30;;;13.80;33.30;;;;;;5014100;28;20479;-81
2022/05/20 13:35:53;;;;;;;4.45;1.35;;;13.80;33.00;;;;;;5012509;28;20038;-79
2022/05/20 13:38:24;;;;;;;1.63;1.17;;;14.60;33.30;;;;;;4996236;28;20495;-80
2022/05/20 13:40:51;;;;;;;6.55;1.70;;;15.80;32.30;;;;;;5013973;28;20034;-81
2022/05/20 13:43:20;;;;;;;3.70;1.50;;;17.00;31.20;;;;;;5013802;28;20018;-82
2022/05/20 13:51:31;;;;;;;2.38;1.20;;;20.20;28.90;;;;;;4995345;28;20033;-81
2022/05/20 13:54:03;;;;;;;4.00;1.40;;;20.80;28.00;;;;;;4996090;28;20073;-80
2022/05/20 13:56:34;;;;;;;4.57;1.45;;;21.10;27.70;;;;;;4995073;28;20034;-80
2022/05/20 13:59:06;;;;;;;1.90;1.02;;;20.90;27.50;;;;;;4995766;28;20041;-80
2022/05/20 14:01:32;;;;;;;1.73;1.38;;;20.50;27.50;;;;;;4994769;28;20030;-81
2022/05/20 14:04:01;;;;;;;2.25;1.17;;;19.60;28.20;;;;;;4976857;28;20503;-81
2022/05/20 14:06:28;;;;;;;4.07;1.48;;;19.20;28.80;;;;;;4993464;28;20498;-81
2022/05/20 14:08:55;;;;;;;3.25;1.70;;;19.30;28.80;;;;;;4993912;28;20049;-81